sensor_id;sensor_type;location;lat;lon;timestamp;P1;durP1;ratioP1;P2;durP2;ratioP2
55362;SDS011;41244;49.242;9.060;2024-03-08T00:00:00;29.25;;;20.65;;
55362;SDS011;41244;49.242;9.060;2024-03-08T00:02:34;28.83;;;20.23;;
55362;SDS011;41244;49.242;9.060;2024-03-08T00:05:02;30.50;;;19.65;;
55362;SDS011;41244;49.242;9.060;2024-03-08T00:07:32;28.73;;;20.05;;
55362;SDS011;41244;49.242;9.060;2024-03-08T00:09:58;29.90;;;20.38;;
55362;SDS011;41244;49.242;9.060;2024-03-08T00:12:24;31.27;;;20.02;;
55362;SDS011;41244;49.242;9.060;2024-03-08T00:14:52;27.50;;;19.02;;
55362;SDS011;41244;49.242;9.060;2024-03-08T00:17:19;26.65;;;17.58;;
55362;SDS011;41244;49.242;9.060;2024-03-08T00:19:48;29.05;;;19.55;;
55362;SDS011;41244;49.242;9.060;2024-03-08T00:22:18;29.08;;;19.52;;
55362;SDS011;41244;49.242;9.060;2024-03-08T00:24:43;29.88;;;21.25;;
55362;SDS011;41244;49.242;9.060;2024-03-08T00:27:10;27.88;;;19.48;;
55362;SDS011;41244;49.242;9.060;2024-03-08T00:29:36;32.38;;;21.20;;
55362;SDS011;41244;49.242;9.060;2024-03-08T00:32:05;29.83;;;18.25;;
55362;SDS011;41244;49.242;9.060;2024-03-08T00:34:34;29.92;;;20.75;;
55362;SDS011;41244;49.242;9.060;2024-03-08T00:37:01;27.58;;;19.48;;
55362;SDS011;41244;49.242;9.060;2024-03-08T00:39:28;28.08;;;19.88;;
55362;SDS011;41244;49.242;9.060;2024-03-08T00:41:54;31.63;;;20.65;;
55362;SDS011;41244;49.242;9.060;2024-03-08T00:44:20;28.10;;;19.25;;
55362;SDS011;41244;49.242;9.060;2024-03-08T00:46:46;34.05;;;21.15;;
55362;SDS011;41244;49.242;9.060;2024-03-08T00:49:12;30.88;;;19.25;;
55362;SDS011;41244;49.242;9.060;2024-03-08T00:51:38;31.92;;;22.17;;
55362;SDS011;41244;49.242;9.060;2024-03-08T00:54:03;31.38;;;20.38;;
55362;SDS011;41244;49.242;9.060;2024-03-08T00:56:29;29.98;;;20.30;;
55362;SDS011;41244;49.242;9.060;2024-03-08T00:58:55;28.55;;;20.60;;
55362;SDS011;41244;49.242;9.060;2024-03-08T01:01:21;28.98;;;19.33;;
55362;SDS011;41244;49.242;9.060;2024-03-08T01:03:46;33.45;;;21.40;;
55362;SDS011;41244;49.242;9.060;2024-03-08T01:06:13;28.65;;;20.33;;
55362;SDS011;41244;49.242;9.060;2024-03-08T01:08:39;31.20;;;21.05;;
55362;SDS011;41244;49.242;9.060;2024-03-08T01:11:07;30.75;;;20.05;;
55362;SDS011;41244;49.242;9.060;2024-03-08T01:13:34;31.15;;;21.20;;
55362;SDS011;41244;49.242;9.060;2024-03-08T01:16:00;30.25;;;20.77;;
55362;SDS011;41244;49.242;9.060;2024-03-08T01:18:25;33.60;;;20.95;;
55362;SDS011;41244;49.242;9.060;2024-03-08T01:20:51;30.65;;;20.00;;
55362;SDS011;41244;49.242;9.060;2024-03-08T01:23:17;30.77;;;20.77;;
55362;SDS011;41244;49.242;9.060;2024-03-08T01:25:43;31.88;;;21.15;;
55362;SDS011;41244;49.242;9.060;2024-03-08T01:28:09;30.00;;;20.88;;
55362;SDS011;41244;49.242;9.060;2024-03-08T01:30:34;32.83;;;21.30;;
55362;SDS011;41244;49.242;9.060;2024-03-08T01:33:02;34.08;;;20.38;;
55362;SDS011;41244;49.242;9.060;2024-03-08T01:35:28;30.23;;;19.58;;
55362;SDS011;41244;49.242;9.060;2024-03-08T01:37:54;32.50;;;20.38;;
55362;SDS011;41244;49.242;9.060;2024-03-08T01:40:20;34.42;;;20.55;;
55362;SDS011;41244;49.242;9.060;2024-03-08T01:42:45;30.98;;;20.27;;
55362;SDS011;41244;49.242;9.060;2024-03-08T01:45:13;32.00;;;20.92;;
55362;SDS011;41244;49.242;9.060;2024-03-08T01:47:38;28.40;;;20.20;;
55362;SDS011;41244;49.242;9.060;2024-03-08T01:50:05;30.73;;;20.33;;
55362;SDS011;41244;49.242;9.060;2024-03-08T01:52:31;33.60;;;20.98;;
55362;SDS011;41244;49.242;9.060;2024-03-08T01:55:01;33.95;;;20.85;;
55362;SDS011;41244;49.242;9.060;2024-03-08T01:57:34;31.90;;;20.70;;
55362;SDS011;41244;49.242;9.060;2024-03-08T02:00:03;29.13;;;18.98;;
55362;SDS011;41244;49.242;9.060;2024-03-08T02:02:30;31.50;;;20.17;;
55362;SDS011;41244;49.242;9.060;2024-03-08T02:04:57;30.50;;;20.23;;
55362;SDS011;41244;49.242;9.060;2024-03-08T02:07:23;30.65;;;20.77;;
55362;SDS011;41244;49.242;9.060;2024-03-08T02:09:49;27.92;;;17.08;;
55362;SDS011;41244;49.242;9.060;2024-03-08T02:12:16;30.10;;;18.40;;
55362;SDS011;41244;49.242;9.060;2024-03-08T02:14:41;29.63;;;19.90;;
55362;SDS011;41244;49.242;9.060;2024-03-08T02:17:09;33.10;;;20.55;;
55362;SDS011;41244;49.242;9.060;2024-03-08T02:19:34;31.58;;;20.75;;
55362;SDS011;41244;49.242;9.060;2024-03-08T02:22:01;32.00;;;20.95;;
55362;SDS011;41244;49.242;9.060;2024-03-08T02:24:29;29.17;;;19.77;;
55362;SDS011;41244;49.242;9.060;2024-03-08T02:26:55;29.95;;;20.08;;
55362;SDS011;41244;49.242;9.060;2024-03-08T02:29:21;30.90;;;20.27;;
55362;SDS011;41244;49.242;9.060;2024-03-08T02:31:47;31.63;;;21.08;;
55362;SDS011;41244;49.242;9.060;2024-03-08T02:34:16;31.75;;;20.00;;
55362;SDS011;41244;49.242;9.060;2024-03-08T02:36:41;34.97;;;21.90;;
55362;SDS011;41244;49.242;9.060;2024-03-08T02:39:07;31.40;;;21.60;;
55362;SDS011;41244;49.242;9.060;2024-03-08T02:41:35;32.80;;;20.55;;
55362;SDS011;41244;49.242;9.060;2024-03-08T02:44:01;32.42;;;20.88;;
55362;SDS011;41244;49.242;9.060;2024-03-08T02:46:27;33.83;;;20.95;;
55362;SDS011;41244;49.242;9.060;2024-03-08T02:48:53;32.25;;;20.10;;
55362;SDS011;41244;49.242;9.060;2024-03-08T02:51:19;33.53;;;21.08;;
55362;SDS011;41244;49.242;9.060;2024-03-08T02:53:45;30.58;;;20.98;;
55362;SDS011;41244;49.242;9.060;2024-03-08T02:56:13;30.80;;;21.08;;
55362;SDS011;41244;49.242;9.060;2024-03-08T02:58:41;33.20;;;20.65;;
55362;SDS011;41244;49.242;9.060;2024-03-08T03:01:08;30.25;;;18.77;;
55362;SDS011;41244;49.242;9.060;2024-03-08T03:03:35;34.83;;;22.15;;
55362;SDS011;41244;49.242;9.060;2024-03-08T03:06:01;33.00;;;20.90;;
55362;SDS011;41244;49.242;9.060;2024-03-08T03:08:27;34.85;;;21.90;;
55362;SDS011;41244;49.242;9.060;2024-03-08T03:10:53;31.67;;;20.60;;
55362;SDS011;41244;49.242;9.060;2024-03-08T03:13:21;30.40;;;21.38;;
55362;SDS011;41244;49.242;9.060;2024-03-08T03:15:48;27.98;;;19.17;;
55362;SDS011;41244;49.242;9.060;2024-03-08T03:18:14;30.85;;;20.52;;
55362;SDS011;41244;49.242;9.060;2024-03-08T03:20:40;32.03;;;22.10;;
55362;SDS011;41244;49.242;9.060;2024-03-08T03:23:07;29.65;;;19.77;;
55362;SDS011;41244;49.242;9.060;2024-03-08T03:25:34;34.28;;;21.08;;
55362;SDS011;41244;49.242;9.060;2024-03-08T03:28:00;31.77;;;21.02;;
55362;SDS011;41244;49.242;9.060;2024-03-08T03:30:27;31.02;;;21.05;;
55362;SDS011;41244;49.242;9.060;2024-03-08T03:32:57;34.60;;;22.33;;
55362;SDS011;41244;49.242;9.060;2024-03-08T03:35:25;33.58;;;21.00;;
55362;SDS011;41244;49.242;9.060;2024-03-08T03:37:54;31.35;;;20.75;;
55362;SDS011;41244;49.242;9.060;2024-03-08T03:40:41;34.00;;;21.63;;
55362;SDS011;41244;49.242;9.060;2024-03-08T03:43:07;31.63;;;20.20;;
55362;SDS011;41244;49.242;9.060;2024-03-08T03:45:34;34.17;;;21.27;;
55362;SDS011;41244;49.242;9.060;2024-03-08T03:48:01;36.55;;;21.17;;
55362;SDS011;41244;49.242;9.060;2024-03-08T03:50:29;33.08;;;22.02;;
55362;SDS011;41244;49.242;9.060;2024-03-08T03:52:55;31.80;;;20.73;;
55362;SDS011;41244;49.242;9.060;2024-03-08T03:55:21;32.88;;;21.27;;
55362;SDS011;41244;49.242;9.060;2024-03-08T03:57:47;37.28;;;21.70;;
55362;SDS011;41244;49.242;9.060;2024-03-08T04:00:12;33.33;;;20.85;;
55362;SDS011;41244;49.242;9.060;2024-03-08T04:02:39;33.13;;;20.98;;
55362;SDS011;41244;49.242;9.060;2024-03-08T04:05:06;32.00;;;20.35;;
55362;SDS011;41244;49.242;9.060;2024-03-08T04:07:32;33.88;;;22.23;;
55362;SDS011;41244;49.242;9.060;2024-03-08T04:09:59;33.40;;;21.50;;
55362;SDS011;41244;49.242;9.060;2024-03-08T04:12:26;31.92;;;21.23;;
55362;SDS011;41244;49.242;9.060;2024-03-08T04:14:54;35.40;;;20.48;;
55362;SDS011;41244;49.242;9.060;2024-03-08T04:17:20;32.92;;;21.58;;
55362;SDS011;41244;49.242;9.060;2024-03-08T04:19:46;36.15;;;21.98;;
55362;SDS011;41244;49.242;9.060;2024-03-08T04:22:13;34.40;;;21.77;;
55362;SDS011;41244;49.242;9.060;2024-03-08T04:24:39;35.08;;;20.77;;
55362;SDS011;41244;49.242;9.060;2024-03-08T04:27:06;33.15;;;20.77;;
55362;SDS011;41244;49.242;9.060;2024-03-08T04:29:31;33.55;;;20.77;;
55362;SDS011;41244;49.242;9.060;2024-03-08T04:32:00;35.03;;;22.15;;
55362;SDS011;41244;49.242;9.060;2024-03-08T04:34:29;34.40;;;20.55;;
55362;SDS011;41244;49.242;9.060;2024-03-08T04:36:56;32.83;;;20.35;;
55362;SDS011;41244;49.242;9.060;2024-03-08T04:39:23;35.33;;;21.05;;
55362;SDS011;41244;49.242;9.060;2024-03-08T04:41:49;32.47;;;20.60;;
55362;SDS011;41244;49.242;9.060;2024-03-08T04:44:15;34.42;;;20.52;;
55362;SDS011;41244;49.242;9.060;2024-03-08T04:46:42;32.60;;;21.10;;
55362;SDS011;41244;49.242;9.060;2024-03-08T04:49:09;36.17;;;21.33;;
55362;SDS011;41244;49.242;9.060;2024-03-08T04:51:36;36.80;;;22.58;;
55362;SDS011;41244;49.242;9.060;2024-03-08T04:54:02;34.28;;;21.65;;
55362;SDS011;41244;49.242;9.060;2024-03-08T04:56:29;31.63;;;21.73;;
55362;SDS011;41244;49.242;9.060;2024-03-08T04:58:55;35.70;;;22.55;;
55362;SDS011;41244;49.242;9.060;2024-03-08T05:01:21;34.28;;;21.08;;
55362;SDS011;41244;49.242;9.060;2024-03-08T05:03:47;33.20;;;20.88;;
55362;SDS011;41244;49.242;9.060;2024-03-08T05:06:15;32.72;;;21.45;;
55362;SDS011;41244;49.242;9.060;2024-03-08T05:08:41;40.53;;;22.63;;
55362;SDS011;41244;49.242;9.060;2024-03-08T05:11:07;39.28;;;23.02;;
55362;SDS011;41244;49.242;9.060;2024-03-08T05:13:33;31.98;;;20.15;;
55362;SDS011;41244;49.242;9.060;2024-03-08T05:15:59;33.13;;;21.58;;
55362;SDS011;41244;49.242;9.060;2024-03-08T05:18:25;33.72;;;21.60;;
55362;SDS011;41244;49.242;9.060;2024-03-08T05:20:53;37.78;;;22.63;;
55362;SDS011;41244;49.242;9.060;2024-03-08T05:23:19;32.25;;;20.92;;
55362;SDS011;41244;49.242;9.060;2024-03-08T05:25:45;37.15;;;22.40;;
55362;SDS011;41244;49.242;9.060;2024-03-08T05:28:14;35.95;;;22.45;;
55362;SDS011;41244;49.242;9.060;2024-03-08T05:30:39;33.28;;;20.83;;
55362;SDS011;41244;49.242;9.060;2024-03-08T05:33:06;37.72;;;23.55;;
55362;SDS011;41244;49.242;9.060;2024-03-08T05:35:35;33.95;;;21.83;;
55362;SDS011;41244;49.242;9.060;2024-03-08T05:38:01;35.70;;;21.52;;
55362;SDS011;41244;49.242;9.060;2024-03-08T05:40:27;36.05;;;22.60;;
55362;SDS011;41244;49.242;9.060;2024-03-08T05:42:56;36.83;;;23.33;;
55362;SDS011;41244;49.242;9.060;2024-03-08T05:45:24;41.25;;;25.13;;
55362;SDS011;41244;49.242;9.060;2024-03-08T05:47:50;32.75;;;21.42;;
55362;SDS011;41244;49.242;9.060;2024-03-08T05:50:17;33.72;;;20.20;;
55362;SDS011;41244;49.242;9.060;2024-03-08T05:52:43;37.10;;;22.88;;
55362;SDS011;41244;49.242;9.060;2024-03-08T05:55:09;36.10;;;22.10;;
55362;SDS011;41244;49.242;9.060;2024-03-08T05:57:35;34.40;;;23.02;;
55362;SDS011;41244;49.242;9.060;2024-03-08T06:00:05;34.53;;;22.23;;
55362;SDS011;41244;49.242;9.060;2024-03-08T06:02:31;37.58;;;22.70;;
55362;SDS011;41244;49.242;9.060;2024-03-08T06:04:58;38.13;;;23.40;;
55362;SDS011;41244;49.242;9.060;2024-03-08T06:07:23;36.33;;;23.35;;
55362;SDS011;41244;49.242;9.060;2024-03-08T06:09:49;35.50;;;22.25;;
55362;SDS011;41244;49.242;9.060;2024-03-08T06:12:15;36.20;;;22.17;;
55362;SDS011;41244;49.242;9.060;2024-03-08T06:14:44;36.28;;;24.08;;
55362;SDS011;41244;49.242;9.060;2024-03-08T06:17:10;35.08;;;22.45;;
55362;SDS011;41244;49.242;9.060;2024-03-08T06:19:36;35.95;;;23.05;;
55362;SDS011;41244;49.242;9.060;2024-03-08T06:22:02;34.83;;;22.48;;
55362;SDS011;41244;49.242;9.060;2024-03-08T06:24:30;33.92;;;22.10;;
55362;SDS011;41244;49.242;9.060;2024-03-08T06:26:57;32.05;;;20.85;;
55362;SDS011;41244;49.242;9.060;2024-03-08T06:29:23;31.80;;;21.30;;
55362;SDS011;41244;49.242;9.060;2024-03-08T06:31:48;33.70;;;22.20;;
55362;SDS011;41244;49.242;9.060;2024-03-08T06:34:14;36.28;;;23.05;;
55362;SDS011;41244;49.242;9.060;2024-03-08T06:36:40;33.80;;;22.30;;
55362;SDS011;41244;49.242;9.060;2024-03-08T06:39:06;36.78;;;22.20;;
55362;SDS011;41244;49.242;9.060;2024-03-08T06:41:35;39.03;;;24.15;;
55362;SDS011;41244;49.242;9.060;2024-03-08T06:44:01;31.67;;;20.58;;
55362;SDS011;41244;49.242;9.060;2024-03-08T06:46:27;35.92;;;22.02;;
55362;SDS011;41244;49.242;9.060;2024-03-08T06:48:53;33.28;;;22.35;;
55362;SDS011;41244;49.242;9.060;2024-03-08T06:51:19;33.28;;;21.77;;
55362;SDS011;41244;49.242;9.060;2024-03-08T06:53:45;41.50;;;23.48;;
55362;SDS011;41244;49.242;9.060;2024-03-08T06:56:10;34.65;;;22.60;;
55362;SDS011;41244;49.242;9.060;2024-03-08T06:58:36;32.45;;;20.27;;
55362;SDS011;41244;49.242;9.060;2024-03-08T07:01:02;34.22;;;22.17;;
55362;SDS011;41244;49.242;9.060;2024-03-08T07:03:32;33.50;;;20.55;;
55362;SDS011;41244;49.242;9.060;2024-03-08T07:05:58;32.05;;;22.27;;
55362;SDS011;41244;49.242;9.060;2024-03-08T07:08:24;32.40;;;21.42;;
55362;SDS011;41244;49.242;9.060;2024-03-08T07:10:52;33.10;;;21.40;;
55362;SDS011;41244;49.242;9.060;2024-03-08T07:13:19;34.15;;;21.60;;
55362;SDS011;41244;49.242;9.060;2024-03-08T07:15:45;31.80;;;21.08;;
55362;SDS011;41244;49.242;9.060;2024-03-08T07:18:11;32.70;;;22.33;;
55362;SDS011;41244;49.242;9.060;2024-03-08T07:20:40;32.45;;;19.65;;
55362;SDS011;41244;49.242;9.060;2024-03-08T07:23:06;32.50;;;20.63;;
55362;SDS011;41244;49.242;9.060;2024-03-08T07:25:33;31.25;;;19.48;;
55362;SDS011;41244;49.242;9.060;2024-03-08T07:28:00;34.70;;;22.10;;
55362;SDS011;41244;49.242;9.060;2024-03-08T07:30:26;31.17;;;19.10;;
55362;SDS011;41244;49.242;9.060;2024-03-08T07:33:24;27.50;;;17.42;;
55362;SDS011;41244;49.242;9.060;2024-03-08T07:35:50;33.47;;;20.90;;
55362;SDS011;41244;49.242;9.060;2024-03-08T07:38:16;28.65;;;19.80;;
55362;SDS011;41244;49.242;9.060;2024-03-08T07:40:41;32.28;;;20.50;;
55362;SDS011;41244;49.242;9.060;2024-03-08T07:43:10;33.05;;;20.77;;
55362;SDS011;41244;49.242;9.060;2024-03-08T07:45:37;33.55;;;22.60;;
55362;SDS011;41244;49.242;9.060;2024-03-08T07:48:03;31.75;;;20.58;;
55362;SDS011;41244;49.242;9.060;2024-03-08T07:50:34;29.55;;;19.05;;
55362;SDS011;41244;49.242;9.060;2024-03-08T07:53:06;31.02;;;20.25;;
55362;SDS011;41244;49.242;9.060;2024-03-08T07:55:33;29.35;;;18.98;;
55362;SDS011;41244;49.242;9.060;2024-03-08T07:58:00;27.40;;;19.67;;
55362;SDS011;41244;49.242;9.060;2024-03-08T08:00:26;30.80;;;19.65;;
55362;SDS011;41244;49.242;9.060;2024-03-08T08:02:52;28.10;;;18.63;;
55362;SDS011;41244;49.242;9.060;2024-03-08T08:05:19;32.70;;;21.73;;
55362;SDS011;41244;49.242;9.060;2024-03-08T08:07:45;27.15;;;18.13;;
55362;SDS011;41244;49.242;9.060;2024-03-08T08:10:12;24.85;;;16.15;;
55362;SDS011;41244;49.242;9.060;2024-03-08T08:12:50;25.77;;;18.05;;
55362;SDS011;41244;49.242;9.060;2024-03-08T08:15:19;30.10;;;19.90;;
55362;SDS011;41244;49.242;9.060;2024-03-08T08:17:45;31.90;;;19.55;;
55362;SDS011;41244;49.242;9.060;2024-03-08T08:20:11;33.35;;;20.65;;
55362;SDS011;41244;49.242;9.060;2024-03-08T08:22:40;29.23;;;20.35;;
55362;SDS011;41244;49.242;9.060;2024-03-08T08:25:08;27.40;;;18.23;;
55362;SDS011;41244;49.242;9.060;2024-03-08T08:27:35;25.33;;;17.38;;
55362;SDS011;41244;49.242;9.060;2024-03-08T08:30:04;25.73;;;19.02;;
55362;SDS011;41244;49.242;9.060;2024-03-08T08:32:33;26.92;;;18.42;;
55362;SDS011;41244;49.242;9.060;2024-03-08T08:35:01;31.92;;;21.48;;
55362;SDS011;41244;49.242;9.060;2024-03-08T08:37:29;26.60;;;19.40;;
55362;SDS011;41244;49.242;9.060;2024-03-08T08:39:56;31.15;;;18.80;;
55362;SDS011;41244;49.242;9.060;2024-03-08T08:42:22;27.83;;;19.23;;
55362;SDS011;41244;49.242;9.060;2024-03-08T08:44:49;29.17;;;19.10;;
55362;SDS011;41244;49.242;9.060;2024-03-08T08:47:15;27.17;;;20.63;;
55362;SDS011;41244;49.242;9.060;2024-03-08T08:49:45;29.08;;;19.90;;
55362;SDS011;41244;49.242;9.060;2024-03-08T08:52:14;28.20;;;19.08;;
55362;SDS011;41244;49.242;9.060;2024-03-08T08:54:41;29.13;;;19.95;;
55362;SDS011;41244;49.242;9.060;2024-03-08T08:57:08;31.40;;;21.38;;
55362;SDS011;41244;49.242;9.060;2024-03-08T08:59:34;27.95;;;19.13;;
55362;SDS011;41244;49.242;9.060;2024-03-08T09:02:04;27.27;;;18.98;;
55362;SDS011;41244;49.242;9.060;2024-03-08T09:04:37;24.30;;;16.83;;
55362;SDS011;41244;49.242;9.060;2024-03-08T09:07:03;25.45;;;16.58;;
55362;SDS011;41244;49.242;9.060;2024-03-08T09:09:31;25.85;;;18.98;;
55362;SDS011;41244;49.242;9.060;2024-03-08T09:11:58;27.25;;;20.40;;
55362;SDS011;41244;49.242;9.060;2024-03-08T09:14:23;28.77;;;21.20;;
55362;SDS011;41244;49.242;9.060;2024-03-08T09:16:51;29.48;;;19.77;;
55362;SDS011;41244;49.242;9.060;2024-03-08T09:19:17;26.35;;;19.15;;
55362;SDS011;41244;49.242;9.060;2024-03-08T09:21:44;26.17;;;16.77;;
55362;SDS011;41244;49.242;9.060;2024-03-08T09:24:10;27.80;;;20.50;;
55362;SDS011;41244;49.242;9.060;2024-03-08T09:26:37;30.75;;;20.05;;
55362;SDS011;41244;49.242;9.060;2024-03-08T09:29:03;28.42;;;19.60;;
55362;SDS011;41244;49.242;9.060;2024-03-08T09:31:30;25.95;;;18.25;;
55362;SDS011;41244;49.242;9.060;2024-03-08T09:33:56;26.17;;;18.55;;
55362;SDS011;41244;49.242;9.060;2024-03-08T09:36:22;28.40;;;20.40;;
55362;SDS011;41244;49.242;9.060;2024-03-08T09:38:47;25.67;;;18.33;;
55362;SDS011;41244;49.242;9.060;2024-03-08T09:41:15;30.67;;;19.92;;
55362;SDS011;41244;49.242;9.060;2024-03-08T09:43:40;27.85;;;19.35;;
55362;SDS011;41244;49.242;9.060;2024-03-08T09:46:07;27.60;;;18.83;;
55362;SDS011;41244;49.242;9.060;2024-03-08T09:48:33;27.08;;;18.05;;
55362;SDS011;41244;49.242;9.060;2024-03-08T09:50:59;28.42;;;19.13;;
55362;SDS011;41244;49.242;9.060;2024-03-08T09:53:25;30.35;;;19.27;;
55362;SDS011;41244;49.242;9.060;2024-03-08T09:55:51;25.95;;;18.20;;
55362;SDS011;41244;49.242;9.060;2024-03-08T09:58:17;29.52;;;19.52;;
55362;SDS011;41244;49.242;9.060;2024-03-08T10:00:58;25.92;;;17.92;;
55362;SDS011;41244;49.242;9.060;2024-03-08T10:03:26;26.77;;;17.55;;
55362;SDS011;41244;49.242;9.060;2024-03-08T10:05:52;24.33;;;17.67;;
55362;SDS011;41244;49.242;9.060;2024-03-08T10:08:25;24.13;;;15.80;;
55362;SDS011;41244;49.242;9.060;2024-03-08T10:10:56;25.33;;;17.65;;
55362;SDS011;41244;49.242;9.060;2024-03-08T10:13:23;24.80;;;17.02;;
55362;SDS011;41244;49.242;9.060;2024-03-08T10:15:52;27.63;;;18.40;;
55362;SDS011;41244;49.242;9.060;2024-03-08T10:18:18;28.67;;;19.83;;
55362;SDS011;41244;49.242;9.060;2024-03-08T10:20:43;25.75;;;19.00;;
55362;SDS011;41244;49.242;9.060;2024-03-08T10:23:09;26.02;;;18.25;;
55362;SDS011;41244;49.242;9.060;2024-03-08T10:25:35;26.35;;;18.52;;
55362;SDS011;41244;49.242;9.060;2024-03-08T10:28:05;30.08;;;19.85;;
55362;SDS011;41244;49.242;9.060;2024-03-08T10:30:31;26.55;;;18.58;;
55362;SDS011;41244;49.242;9.060;2024-03-08T10:32:57;28.55;;;19.10;;
55362;SDS011;41244;49.242;9.060;2024-03-08T10:35:23;29.08;;;18.95;;
55362;SDS011;41244;49.242;9.060;2024-03-08T10:37:51;27.75;;;17.33;;
55362;SDS011;41244;49.242;9.060;2024-03-08T10:40:24;27.75;;;19.15;;
55362;SDS011;41244;49.242;9.060;2024-03-08T10:42:51;29.20;;;20.00;;
55362;SDS011;41244;49.242;9.060;2024-03-08T10:48:04;29.63;;;19.90;;
55362;SDS011;41244;49.242;9.060;2024-03-08T10:50:35;26.42;;;19.20;;
55362;SDS011;41244;49.242;9.060;2024-03-08T10:53:01;27.45;;;18.00;;
55362;SDS011;41244;49.242;9.060;2024-03-08T10:55:28;27.52;;;19.17;;
55362;SDS011;41244;49.242;9.060;2024-03-08T10:57:54;28.08;;;19.40;;
55362;SDS011;41244;49.242;9.060;2024-03-08T11:00:20;30.95;;;20.83;;
55362;SDS011;41244;49.242;9.060;2024-03-08T11:02:51;28.30;;;19.00;;
55362;SDS011;41244;49.242;9.060;2024-03-08T11:05:31;27.63;;;20.38;;
55362;SDS011;41244;49.242;9.060;2024-03-08T11:10:46;26.75;;;18.65;;
55362;SDS011;41244;49.242;9.060;2024-03-08T11:16:11;30.08;;;19.27;;
55362;SDS011;41244;49.242;9.060;2024-03-08T11:18:58;27.05;;;19.55;;
55362;SDS011;41244;49.242;9.060;2024-03-08T11:21:29;30.00;;;20.27;;
55362;SDS011;41244;49.242;9.060;2024-03-08T11:24:02;29.77;;;20.42;;
55362;SDS011;41244;49.242;9.060;2024-03-08T11:26:32;28.92;;;21.20;;
55362;SDS011;41244;49.242;9.060;2024-03-08T11:34:47;29.58;;;20.88;;
55362;SDS011;41244;49.242;9.060;2024-03-08T11:37:18;32.58;;;21.98;;
55362;SDS011;41244;49.242;9.060;2024-03-08T11:39:52;34.00;;;22.25;;
55362;SDS011;41244;49.242;9.060;2024-03-08T11:42:27;32.83;;;21.48;;
55362;SDS011;41244;49.242;9.060;2024-03-08T11:44:53;33.22;;;21.98;;
55362;SDS011;41244;49.242;9.060;2024-03-08T11:47:20;27.63;;;18.63;;
55362;SDS011;41244;49.242;9.060;2024-03-08T11:49:46;29.30;;;20.55;;
55362;SDS011;41244;49.242;9.060;2024-03-08T11:52:15;28.15;;;20.23;;
55362;SDS011;41244;49.242;9.060;2024-03-08T11:54:43;33.20;;;22.25;;
55362;SDS011;41244;49.242;9.060;2024-03-08T11:57:25;29.50;;;22.08;;
55362;SDS011;41244;49.242;9.060;2024-03-08T11:59:54;28.05;;;21.10;;
55362;SDS011;41244;49.242;9.060;2024-03-08T12:02:30;32.25;;;21.05;;
55362;SDS011;41244;49.242;9.060;2024-03-08T12:04:56;32.17;;;21.60;;
55362;SDS011;41244;49.242;9.060;2024-03-08T12:07:24;29.13;;;20.95;;
55362;SDS011;41244;49.242;9.060;2024-03-08T12:12:48;32.85;;;21.95;;
55362;SDS011;41244;49.242;9.060;2024-03-08T12:15:16;30.02;;;20.90;;
55362;SDS011;41244;49.242;9.060;2024-03-08T12:17:47;29.63;;;21.25;;
55362;SDS011;41244;49.242;9.060;2024-03-08T12:20:19;29.40;;;22.00;;
55362;SDS011;41244;49.242;9.060;2024-03-08T12:22:48;29.00;;;21.67;;
55362;SDS011;41244;49.242;9.060;2024-03-08T12:25:15;30.65;;;22.50;;
55362;SDS011;41244;49.242;9.060;2024-03-08T12:27:41;29.77;;;21.98;;
55362;SDS011;41244;49.242;9.060;2024-03-08T12:30:21;30.42;;;21.38;;
55362;SDS011;41244;49.242;9.060;2024-03-08T12:32:48;29.80;;;21.52;;
55362;SDS011;41244;49.242;9.060;2024-03-08T12:35:21;28.05;;;19.65;;
55362;SDS011;41244;49.242;9.060;2024-03-08T12:37:48;27.13;;;19.52;;
55362;SDS011;41244;49.242;9.060;2024-03-08T12:42:57;28.67;;;20.08;;
55362;SDS011;41244;49.242;9.060;2024-03-08T12:45:27;30.85;;;20.70;;
55362;SDS011;41244;49.242;9.060;2024-03-08T12:47:53;29.63;;;21.33;;
55362;SDS011;41244;49.242;9.060;2024-03-08T12:50:20;29.20;;;21.05;;
55362;SDS011;41244;49.242;9.060;2024-03-08T12:52:47;26.33;;;19.55;;
55362;SDS011;41244;49.242;9.060;2024-03-08T12:55:17;26.67;;;18.85;;
55362;SDS011;41244;49.242;9.060;2024-03-08T12:57:43;26.63;;;20.08;;
55362;SDS011;41244;49.242;9.060;2024-03-08T13:00:10;24.52;;;18.67;;
55362;SDS011;41244;49.242;9.060;2024-03-08T13:02:44;27.33;;;19.55;;
55362;SDS011;41244;49.242;9.060;2024-03-08T13:05:11;28.15;;;21.13;;
55362;SDS011;41244;49.242;9.060;2024-03-08T13:07:39;26.73;;;20.27;;
55362;SDS011;41244;49.242;9.060;2024-03-08T13:10:12;26.23;;;18.65;;
55362;SDS011;41244;49.242;9.060;2024-03-08T13:12:40;26.17;;;18.85;;
55362;SDS011;41244;49.242;9.060;2024-03-08T13:15:09;30.15;;;20.25;;
55362;SDS011;41244;49.242;9.060;2024-03-08T13:17:40;27.13;;;20.23;;
55362;SDS011;41244;49.242;9.060;2024-03-08T13:20:07;27.48;;;19.60;;
55362;SDS011;41244;49.242;9.060;2024-03-08T13:22:34;27.77;;;17.60;;
55362;SDS011;41244;49.242;9.060;2024-03-08T13:25:01;27.95;;;20.20;;
55362;SDS011;41244;49.242;9.060;2024-03-08T13:27:28;26.15;;;18.33;;
55362;SDS011;41244;49.242;9.060;2024-03-08T13:29:54;24.67;;;19.05;;
55362;SDS011;41244;49.242;9.060;2024-03-08T13:32:19;27.08;;;19.35;;
55362;SDS011;41244;49.242;9.060;2024-03-08T13:34:47;26.17;;;19.45;;
55362;SDS011;41244;49.242;9.060;2024-03-08T13:37:12;27.73;;;20.55;;
55362;SDS011;41244;49.242;9.060;2024-03-08T13:39:41;25.80;;;20.15;;
55362;SDS011;41244;49.242;9.060;2024-03-08T13:42:17;26.73;;;19.08;;
55362;SDS011;41244;49.242;9.060;2024-03-08T13:44:44;25.30;;;18.58;;
55362;SDS011;41244;49.242;9.060;2024-03-08T13:47:12;26.75;;;19.15;;
55362;SDS011;41244;49.242;9.060;2024-03-08T13:49:42;24.38;;;18.70;;
55362;SDS011;41244;49.242;9.060;2024-03-08T13:52:09;28.33;;;20.58;;
55362;SDS011;41244;49.242;9.060;2024-03-08T13:54:37;28.55;;;20.10;;
55362;SDS011;41244;49.242;9.060;2024-03-08T13:57:03;27.65;;;19.98;;
55362;SDS011;41244;49.242;9.060;2024-03-08T13:59:30;25.90;;;19.77;;
55362;SDS011;41244;49.242;9.060;2024-03-08T14:01:57;25.40;;;19.40;;
55362;SDS011;41244;49.242;9.060;2024-03-08T14:04:26;24.67;;;18.45;;
55362;SDS011;41244;49.242;9.060;2024-03-08T14:06:53;27.45;;;19.85;;
55362;SDS011;41244;49.242;9.060;2024-03-08T14:09:28;26.35;;;18.63;;
55362;SDS011;41244;49.242;9.060;2024-03-08T14:11:56;26.73;;;19.00;;
55362;SDS011;41244;49.242;9.060;2024-03-08T14:14:22;25.33;;;18.02;;
55362;SDS011;41244;49.242;9.060;2024-03-08T14:16:48;26.70;;;19.30;;
55362;SDS011;41244;49.242;9.060;2024-03-08T14:19:34;29.15;;;19.45;;
55362;SDS011;41244;49.242;9.060;2024-03-08T14:22:04;26.83;;;19.90;;
55362;SDS011;41244;49.242;9.060;2024-03-08T14:24:30;26.30;;;18.48;;
55362;SDS011;41244;49.242;9.060;2024-03-08T14:26:56;24.50;;;18.02;;
55362;SDS011;41244;49.242;9.060;2024-03-08T14:29:27;25.20;;;18.73;;
55362;SDS011;41244;49.242;9.060;2024-03-08T14:31:54;26.27;;;17.45;;
55362;SDS011;41244;49.242;9.060;2024-03-08T14:34:24;23.17;;;17.05;;
55362;SDS011;41244;49.242;9.060;2024-03-08T14:37:01;26.15;;;19.27;;
55362;SDS011;41244;49.242;9.060;2024-03-08T14:39:41;26.05;;;19.92;;
55362;SDS011;41244;49.242;9.060;2024-03-08T14:42:08;28.95;;;17.80;;